Terminal Aerodrome Forecast
Issued by NWS

Home | Current Version | Previous Version | Text Only | Print | Product List | Glossary On
Versions: 1 2 3 4 5 6 7 8 9 10 11 12 13 14 15
000
FTUS42 KTBW 281700
TAFLAL
TAF
KLAL 281720Z 2818/2918 22008KT P6SM SCT025
     FM290000 VRB03KT P6SM FEW035 SCT250
     FM290800 00000KT 3SM BR SCT005 SCT250
     FM291500 19006KT P6SM SCT025 SCT250=

USA.gov is the U.S. government's official web portal to all federal, state and local government web resources and services.